Terminal Aerodrome Forecast
Issued by NWS Charleston, WV

Current Version | Previous Version | Text Only | Print | Product List | Glossary Off
Versions: 1 2 3 4 5 6 7 8 9 10 11 12 13 14 15 16 17 18 19 20 21 22 23 24

184
FTUS41 KRLX 181505 AAA
TAFCRW
TAF AMD
KCRW 181505Z 1815/1912 07008KT P6SM -SHRA OVC045
     FM181600 11007KT P6SM -SHRA VCTS OVC045CB
     FM182000 11008KT P6SM OVC060=

USA.gov is the U.S. government's official web portal to all federal, state and local government web resources and services.